createdAt,value
2023-04-12T00:04:04.515Z,99264.44
2023-04-12T00:09:08.836Z,99254.19
2023-04-12T00:14:12.376Z,99253.44
2023-04-12T00:19:18.033Z,99267.56
2023-04-12T00:24:21.571Z,99252.22
2023-04-12T00:29:25.241Z,99269.47
2023-04-12T00:34:30.150Z,99267.06
2023-04-12T00:39:33.332Z,99268.16
2023-04-12T00:44:36.860Z,99265.47
2023-04-12T00:49:41.921Z,99262.75
2023-04-12T00:54:45.946Z,99257.63
2023-04-12T00:59:49.407Z,99237.97
2023-04-12T01:04:54.310Z,99260.75
2023-04-12T01:10:00.968Z,99260.75
2023-04-12T01:15:08.900Z,99238.28
2023-04-12T01:20:17.327Z,99241.13
2023-04-12T01:25:34.623Z,99250.63
2023-04-12T01:30:40.821Z,99241.97
2023-04-12T01:35:45.834Z,99241.78
2023-04-12T01:40:50.331Z,99224.50
2023-04-12T01:45:55.600Z,99225.53
2023-04-12T01:51:06.572Z,99226.50
2023-04-12T01:56:11.443Z,99228.28
2023-04-12T02:01:16.904Z,99226.66
2023-04-12T02:06:21.897Z,99214.53
2023-04-12T02:11:25.040Z,99213.72
2023-04-12T02:16:30.239Z,99211.03
2023-04-12T02:21:42.209Z,99209.38
2023-04-12T02:26:46.353Z,99212.78
2023-04-12T02:31:51.352Z,99209.31
2023-04-12T02:36:54.846Z,99206.75
2023-04-12T02:41:58.353Z,99209.28
2023-04-12T02:47:03.712Z,99212.66
2023-04-12T02:52:07.257Z,99216.06
2023-04-12T02:57:11.684Z,99218.63
2023-04-12T03:02:16.948Z,99221.16
2023-04-12T03:07:21.425Z,99222.16
2023-04-12T03:12:24.916Z,99238.41
2023-04-12T03:17:29.883Z,99232.34
2023-04-12T03:22:33.357Z,99229.06
2023-04-12T03:27:36.843Z,99224.09
2023-04-12T03:32:42.778Z,99233.00
2023-04-12T03:37:46.297Z,99245.28
2023-04-12T03:42:49.851Z,99248.94
2023-04-12T03:47:54.900Z,99243.13
2023-04-12T03:52:58.397Z,99251.06
2023-04-12T03:58:02.180Z,99246.94
2023-04-12T04:03:07.958Z,99240.19
2023-04-12T04:08:11.574Z,99245.44
2023-04-12T04:13:15.140Z,99241.00
2023-04-12T04:18:20.031Z,99242.91
2023-04-12T04:23:23.482Z,99242.84
2023-04-12T04:28:29.363Z,99241.50
2023-04-12T04:33:34.384Z,99246.06
2023-04-12T04:38:38.059Z,99242.53
2023-04-12T04:43:42.835Z,99241.50
2023-04-12T04:48:47.894Z,99238.09
2023-04-12T04:53:51.489Z,99240.97
2023-04-12T04:58:57.000Z,99238.91
2023-04-12T05:04:02.308Z,99240.75
2023-04-12T05:09:05.924Z,99232.28
2023-04-12T05:14:11.293Z,99252.28
2023-04-12T05:19:17.322Z,99246.81
2023-04-12T05:24:20.986Z,99255.09
2023-04-12T05:29:24.431Z,99257.56
2023-04-12T05:34:29.399Z,99258.63
2023-04-12T05:39:35.368Z,99259.38
2023-04-12T05:44:40.392Z,99252.31
2023-04-12T05:49:45.236Z,99255.72
2023-04-12T05:54:49.196Z,99261.03
2023-04-12T05:59:52.608Z,99266.31
2023-04-12T06:04:58.448Z,99262.84
2023-04-12T06:10:02.079Z,99252.16
2023-04-12T06:15:08.039Z,99260.69
2023-04-12T06:20:14.259Z,99255.00
2023-04-12T06:25:17.777Z,99265.06
2023-04-12T06:30:21.463Z,99262.94
2023-04-12T06:35:26.344Z,99257.78
2023-04-12T06:40:30.192Z,99247.78
2023-04-12T06:45:33.744Z,99249.91
2023-04-12T06:50:38.818Z,99244.88
2023-04-12T06:55:42.650Z,99234.88
2023-04-12T07:00:46.133Z,99238.59
2023-04-12T07:05:51.704Z,99242.78
2023-04-12T07:10:55.473Z,99244.34
2023-04-12T07:16:01.062Z,99251.69
2023-04-12T07:21:08.006Z,99251.31
2023-04-12T07:26:11.631Z,99250.38
2023-04-12T07:31:15.108Z,99246.88
2023-04-12T07:36:22.251Z,99241.69
2023-04-12T07:41:25.757Z,99235.91
2023-04-12T07:46:29.391Z,99241.47
2023-04-12T07:51:34.307Z,99239.13
2023-04-12T07:56:37.931Z,99239.94
2023-04-12T08:01:41.445Z,99234.88
2023-04-12T08:06:46.491Z,99226.50
2023-04-12T08:11:50.029Z,99219.47
2023-04-12T08:16:53.461Z,99210.88
2023-04-12T08:21:58.293Z,99204.16
2023-04-12T08:27:02.497Z,99196.78
2023-04-12T08:32:07.373Z,99189.22
2023-04-12T08:37:12.482Z,99192.47
2023-04-12T08:42:17.326Z,99189.25
2023-04-12T08:47:22.427Z,99186.06
2023-04-12T08:52:28.502Z,99177.72
2023-04-12T08:57:32.719Z,99170.72
2023-04-12T09:02:37.503Z,99177.31
2023-04-12T09:07:42.707Z,99190.84
2023-04-12T09:12:50.956Z,99166.09
2023-04-12T09:18:07.179Z,99165.88
2023-04-12T09:23:22.649Z,99154.78
2023-04-12T09:28:27.883Z,99162.84
2023-04-12T09:33:36.423Z,99150.69
2023-04-12T09:38:44.014Z,99153.66
2023-04-12T09:43:47.472Z,99147.34
2023-04-12T09:48:52.490Z,99145.72
2023-04-12T09:54:01.070Z,99144.88
2023-04-12T09:59:05.978Z,99144.63
2023-04-12T10:04:10.633Z,99137.72
2023-04-12T10:09:15.832Z,99139.75
2023-04-12T10:14:20.944Z,99141.25
2023-04-12T10:19:26.722Z,99134.66
2023-04-12T10:24:32.226Z,99130.81
2023-04-12T10:29:37.457Z,99121.50
2023-04-12T10:34:44.093Z,99114.91
2023-04-12T10:39:54.236Z,99113.53
2023-04-12T10:45:01.014Z,99117.59
2023-04-12T10:50:24.759Z,99111.72
2023-04-12T10:55:33.725Z,99103.09
2023-04-12T11:01:12.574Z,99104.50
2023-04-12T11:06:26.999Z,99091.06
2023-04-12T11:11:36.109Z,99083.16
2023-04-12T11:17:12.954Z,99083.56
2023-04-12T11:22:18.353Z,99068.13
2023-04-12T11:27:24.838Z,99065.03
2023-04-12T11:32:30.521Z,99065.97
2023-04-12T11:37:35.310Z,99061.31
2023-04-12T11:42:41.804Z,99035.81
2023-04-12T11:47:45.569Z,99036.88
2023-04-12T11:52:49.101Z,99027.16
2023-04-12T11:57:56.173Z,99025.41
2023-04-12T12:03:07.726Z,99015.31
2023-04-12T12:08:14.651Z,99017.59
2023-04-12T12:13:19.332Z,99013.03
2023-04-12T12:18:29.086Z,98995.75
2023-04-12T12:23:33.282Z,98991.00
2023-04-12T12:28:39.908Z,98996.38
2023-04-12T12:33:47.060Z,98991.88
2023-04-12T12:38:54.651Z,98986.72
2023-04-12T12:43:59.797Z,98986.41
2023-04-12T12:49:03.383Z,98979.19
2023-04-12T12:54:07.899Z,98969.22
2023-04-12T12:59:12.831Z,98977.41
2023-04-12T13:04:16.393Z,98969.06
2023-04-12T13:09:20.018Z,98960.22
2023-04-12T13:14:24.936Z,98959.91
2023-04-12T13:19:28.422Z,98968.97
2023-04-12T13:24:31.854Z,98957.81
2023-04-12T13:29:36.967Z,98950.75
2023-04-12T13:34:40.521Z,98949.34
2023-04-12T13:39:44.891Z,98940.63
2023-04-12T13:44:49.661Z,98944.13
2023-04-12T13:49:54.597Z,98943.00
2023-04-12T13:54:59.781Z,98938.78
2023-04-12T14:00:08.072Z,98936.06
2023-04-12T14:05:12.685Z,98939.63
2023-04-12T14:10:16.312Z,98941.47
2023-04-12T14:15:21.917Z,98937.00
2023-04-12T14:20:25.708Z,98934.78
2023-04-12T14:25:29.271Z,98936.03
2023-04-12T14:30:34.289Z,98938.72
2023-04-12T14:35:37.806Z,98932.50
2023-04-12T14:40:41.394Z,98919.31
2023-04-12T14:45:46.504Z,98939.34
2023-04-12T14:50:49.968Z,98926.03
2023-04-12T14:55:53.523Z,98912.31
2023-04-12T15:01:00.312Z,98924.09
2023-04-12T15:06:04.229Z,98924.31
2023-04-12T15:11:10.410Z,98884.84
2023-04-12T15:16:15.850Z,98922.28
2023-04-12T15:21:19.494Z,98918.19
2023-04-12T15:26:22.984Z,98915.56
2023-04-12T15:31:28.419Z,98917.53
2023-04-12T15:36:34.978Z,98891.94
2023-04-12T15:41:40.425Z,98906.03
2023-04-12T15:46:56.014Z,98910.75
2023-04-12T15:52:03.201Z,98914.66
2023-04-12T15:57:09.684Z,98917.00
2023-04-12T16:02:14.899Z,98910.78
2023-04-12T16:07:18.963Z,98905.91
2023-04-12T16:12:22.398Z,98901.75
2023-04-12T16:17:27.283Z,98900.78
2023-04-12T16:22:30.709Z,98910.44
2023-04-12T16:27:34.309Z,98897.16
2023-04-12T16:32:39.315Z,98906.50
2023-04-12T16:37:43.514Z,98905.50
2023-04-12T16:42:47.112Z,98907.91
2023-04-12T16:47:52.013Z,98913.41
2023-04-12T16:52:55.530Z,98906.94
2023-04-12T16:57:59.001Z,98910.78
2023-04-12T17:03:04.247Z,98908.53
2023-04-12T17:08:09.873Z,98909.94
2023-04-12T17:13:13.724Z,98923.06
2023-04-12T17:18:18.632Z,98926.03
2023-04-12T17:23:22.175Z,98935.25
2023-04-12T17:28:25.983Z,98934.50
2023-04-12T17:33:30.866Z,98937.41
2023-04-12T17:38:34.751Z,98939.25
2023-04-12T17:43:38.223Z,98945.47
2023-04-12T17:48:43.282Z,98950.81
2023-04-12T17:53:47.053Z,98931.16
2023-04-12T17:58:50.533Z,98945.00
2023-04-12T18:03:57.621Z,98959.00
2023-04-12T18:09:02.570Z,98959.19
2023-04-12T18:14:06.180Z,98954.06
2023-04-12T18:19:11.633Z,98949.00
2023-04-12T18:24:15.722Z,98959.47
2023-04-12T18:29:19.598Z,98962.16
2023-04-12T18:34:24.745Z,98961.38
2023-04-12T18:39:28.665Z,98963.22
2023-04-12T18:44:32.636Z,98966.03
2023-04-12T18:49:37.568Z,98970.50
2023-04-12T18:54:41.039Z,98967.22
2023-04-12T18:59:47.972Z,98972.66
2023-04-12T19:04:53.045Z,98945.19
2023-04-12T19:09:56.600Z,98968.63
2023-04-12T19:15:00.169Z,98966.13
2023-04-12T19:20:05.277Z,98975.75
2023-04-12T19:25:09.968Z,98971.56
2023-04-12T19:30:14.952Z,98970.91
2023-04-12T19:35:19.847Z,98968.38
2023-04-12T19:40:23.291Z,98969.38
2023-04-12T19:45:28.053Z,98965.13
2023-04-12T19:50:33.017Z,98967.78
2023-04-12T19:55:36.723Z,98965.28
2023-04-12T20:00:41.495Z,98962.78
2023-04-12T20:05:47.627Z,98969.00
2023-04-12T20:10:51.087Z,98970.16
2023-04-12T20:15:54.598Z,98967.78
2023-04-12T20:20:59.441Z,98968.84
2023-04-12T20:26:02.934Z,98975.06
2023-04-12T20:31:06.720Z,98968.31
2023-04-12T20:36:13.428Z,98965.78
2023-04-12T20:41:16.875Z,98968.66
2023-04-12T20:46:25.751Z,98956.69
2023-04-12T20:51:30.914Z,98957.75
2023-04-12T20:56:34.066Z,98971.66
2023-04-12T21:01:37.689Z,98976.06
2023-04-12T21:06:42.533Z,98966.50
2023-04-12T21:11:46.520Z,98975.97
2023-04-12T21:16:49.900Z,98966.47
2023-04-12T21:21:55.048Z,98962.13
2023-04-12T21:26:58.527Z,98957.88
2023-04-12T21:32:02.498Z,98967.44
2023-04-12T21:37:07.872Z,98969.22
2023-04-12T21:42:11.343Z,98968.47
2023-04-12T21:47:14.836Z,98963.41
2023-04-12T21:52:19.658Z,98963.44
2023-04-12T21:57:23.582Z,98968.66
2023-04-12T22:02:27.690Z,98958.31
2023-04-12T22:07:33.682Z,98970.38
2023-04-12T22:12:37.842Z,98964.31
2023-04-12T22:17:41.398Z,98970.34
2023-04-12T22:22:46.374Z,98954.75
2023-04-12T22:27:49.541Z,98961.59
2023-04-12T22:32:53.912Z,98952.97
2023-04-12T22:37:58.837Z,98949.50
2023-04-12T22:43:02.053Z,98947.78
2023-04-12T22:48:06.897Z,98945.28
2023-04-12T22:53:14.126Z,98936.66
2023-04-12T22:58:17.805Z,98951.41
2023-04-12T23:03:21.780Z,98937.69
2023-04-12T23:08:26.797Z,98953.25
2023-04-12T23:13:30.438Z,98948.09
2023-04-12T23:18:33.900Z,98937.81
2023-04-12T23:23:38.942Z,98937.81
2023-04-12T23:28:42.614Z,98943.91
2023-04-12T23:33:46.920Z,98945.63
2023-04-12T23:38:55.519Z,98950.81
2023-04-12T23:43:59.689Z,98943.94
2023-04-12T23:49:03.512Z,98927.53
2023-04-12T23:54:08.538Z,98942.22
2023-04-12T23:59:11.939Z,98933.56
